createdAt,value
2018-02-10T00:01:46.704Z,30.30
2018-02-10T00:04:15.654Z,30.40
2018-02-10T00:06:43.822Z,30.30
2018-02-10T00:09:11.978Z,30.40
2018-02-10T00:11:40.134Z,30.40
2018-02-10T00:14:08.998Z,30.40
2018-02-10T00:16:37.149Z,30.50
2018-02-10T00:19:05.309Z,30.50
2018-02-10T00:21:33.501Z,30.60
2018-02-10T00:24:01.780Z,30.60
2018-02-10T00:26:29.951Z,30.50
2018-02-10T00:28:58.263Z,30.60
2018-02-10T00:31:26.468Z,30.60
2018-02-10T00:33:54.736Z,30.60
2018-02-10T00:36:22.978Z,30.70
2018-02-10T00:38:51.882Z,30.70
2018-02-10T00:41:20.090Z,30.60
2018-02-10T00:43:48.969Z,30.70
2018-02-10T00:46:17.133Z,30.70
2018-02-10T00:48:45.311Z,30.80
2018-02-10T00:51:13.477Z,30.80
2018-02-10T00:53:41.672Z,30.80
2018-02-10T00:56:09.837Z,30.80
2018-02-10T00:58:38.007Z,30.90
2018-02-10T01:01:06.149Z,30.90
2018-02-10T01:03:35.055Z,30.90
2018-02-10T01:06:03.272Z,30.90
2018-02-10T01:08:31.418Z,30.90
2018-02-10T01:10:59.559Z,31.00
2018-02-10T01:13:28.481Z,31.00
2018-02-10T01:15:56.648Z,31.00
2018-02-10T01:18:24.849Z,31.00
2018-02-10T01:20:53.005Z,31.10
2018-02-10T01:23:21.164Z,31.10
2018-02-10T01:25:49.345Z,31.10
2018-02-10T01:28:18.449Z,31.20
2018-02-10T01:30:46.611Z,31.10
2018-02-10T01:33:14.745Z,31.20
2018-02-10T01:35:42.962Z,31.20
2018-02-10T01:38:11.112Z,31.30
2018-02-10T01:40:40.112Z,31.30
2018-02-10T01:43:08.292Z,31.20
2018-02-10T01:45:36.449Z,31.40
2018-02-10T01:48:05.374Z,31.50
2018-02-10T01:50:33.572Z,31.40
2018-02-10T01:53:01.724Z,31.50
2018-02-10T01:55:29.971Z,31.50
2018-02-10T01:57:58.199Z,31.30
2018-02-10T02:00:26.593Z,31.30
2018-02-10T02:02:54.741Z,31.20
2018-02-10T02:05:22.949Z,31.20
2018-02-10T02:07:51.114Z,31.10
2018-02-10T02:10:19.279Z,31.00
2018-02-10T02:12:47.441Z,31.10
2018-02-10T02:15:15.610Z,31.00
2018-02-10T02:17:43.827Z,30.90
2018-02-10T02:20:11.978Z,30.80
2018-02-10T02:22:40.759Z,30.80
2018-02-10T02:25:08.901Z,30.80
2018-02-10T02:27:37.060Z,30.70
2018-02-10T02:30:05.494Z,30.70
2018-02-10T02:32:33.694Z,30.70
2018-02-10T02:35:02.622Z,31.40
2018-02-10T02:37:30.808Z,30.80
2018-02-10T02:39:59.665Z,30.80
2018-02-10T02:42:28.582Z,30.80
2018-02-10T02:44:56.741Z,30.80
2018-02-10T02:47:24.901Z,30.70
2018-02-10T02:49:53.819Z,30.80
2018-02-10T02:52:21.976Z,30.80
2018-02-10T02:54:50.139Z,30.90
2018-02-10T02:57:18.283Z,30.90
2018-02-10T02:59:46.449Z,30.90
2018-02-10T03:02:14.574Z,30.90
2018-02-10T03:04:42.807Z,30.90
2018-02-10T03:07:11.019Z,31.00
2018-02-10T03:09:39.648Z,31.00
2018-02-10T03:12:07.807Z,31.10
2018-02-10T03:14:35.998Z,31.10
2018-02-10T03:17:04.162Z,31.20
2018-02-10T03:19:32.321Z,31.30
2018-02-10T03:22:00.518Z,31.30
2018-02-10T03:24:28.836Z,31.50
2018-02-10T03:26:57.006Z,31.40
2018-02-10T03:29:25.963Z,31.60
2018-02-10T03:31:54.095Z,31.60
2018-02-10T03:34:22.308Z,31.60
2018-02-10T03:36:50.448Z,31.70
2018-02-10T03:39:18.597Z,31.80
2018-02-10T03:41:46.756Z,31.80
2018-02-10T03:44:15.690Z,31.90
2018-02-10T03:46:43.833Z,31.90
2018-02-10T03:49:11.980Z,32.00
2018-02-10T03:51:40.133Z,31.90
2018-02-10T03:54:08.310Z,32.00
2018-02-10T03:56:36.475Z,32.00
2018-02-10T03:59:04.642Z,32.10
2018-02-10T04:01:32.865Z,32.10
2018-02-10T04:04:01.112Z,32.20
2018-02-10T04:06:29.357Z,32.20
2018-02-10T04:08:57.471Z,32.20
2018-02-10T04:11:25.695Z,32.20
2018-02-10T04:13:53.835Z,32.40
2018-02-10T04:16:22.757Z,32.50
2018-02-10T04:18:50.931Z,32.40
2018-02-10T04:21:19.174Z,32.50
2018-02-10T04:23:48.102Z,32.40
2018-02-10T04:26:16.256Z,32.40
2018-02-10T04:28:44.400Z,32.40
2018-02-10T04:31:13.329Z,32.70
2018-02-10T04:33:41.785Z,32.30
2018-02-10T04:36:10.700Z,32.20
2018-02-10T04:38:38.855Z,32.20
2018-02-10T04:41:07.788Z,32.20
2018-02-10T04:43:36.042Z,32.20
2018-02-10T04:46:04.223Z,32.10
2018-02-10T04:48:33.309Z,32.00
2018-02-10T04:51:01.513Z,32.00
2018-02-10T04:53:29.647Z,31.90
2018-02-10T04:55:57.880Z,31.90
2018-02-10T04:58:26.873Z,31.80
2018-02-10T05:00:55.020Z,31.80
2018-02-10T05:03:23.192Z,31.80
2018-02-10T05:05:52.055Z,31.80
2018-02-10T05:08:20.213Z,31.90
2018-02-10T05:10:49.157Z,31.80
2018-02-10T05:13:17.300Z,31.80
2018-02-10T05:15:45.454Z,31.90
2018-02-10T05:18:14.393Z,32.00
2018-02-10T05:20:42.529Z,32.00
2018-02-10T05:23:10.666Z,32.00
2018-02-10T05:25:38.817Z,32.00
2018-02-10T05:28:07.102Z,32.10
2018-02-10T05:30:35.305Z,32.10
2018-02-10T05:33:04.242Z,32.20
2018-02-10T05:35:32.389Z,32.10
2018-02-10T05:38:00.570Z,32.20
2018-02-10T05:40:28.723Z,32.20
2018-02-10T05:42:56.929Z,32.20
2018-02-10T05:45:25.923Z,32.30
2018-02-10T05:47:54.092Z,32.30
2018-02-10T05:50:22.220Z,32.40
2018-02-10T05:52:50.437Z,32.30
2018-02-10T05:55:18.673Z,32.50
2018-02-10T05:57:47.015Z,32.50
2018-02-10T06:00:15.227Z,32.60
2018-02-10T06:02:43.417Z,32.60
2018-02-10T06:05:11.589Z,32.70
2018-02-10T06:07:40.564Z,32.80
2018-02-10T06:10:08.714Z,32.80
2018-02-10T06:12:37.638Z,33.00
2018-02-10T06:15:06.573Z,33.70
2018-02-10T06:17:34.828Z,33.10
2018-02-10T06:20:03.141Z,33.20
2018-02-10T06:22:31.327Z,33.20
2018-02-10T06:24:59.563Z,33.30
2018-02-10T06:27:27.800Z,33.40
2018-02-10T06:29:56.026Z,33.40
2018-02-10T06:32:24.284Z,33.50
2018-02-10T06:34:52.453Z,33.50
2018-02-10T06:37:20.584Z,33.60
2018-02-10T06:39:48.745Z,33.60
2018-02-10T06:42:16.886Z,33.70
2018-02-10T06:44:45.030Z,33.70
2018-02-10T06:47:15.268Z,33.90
2018-02-10T06:49:43.450Z,33.90
2018-02-10T06:52:11.611Z,33.90
2018-02-10T06:54:40.689Z,33.70
2018-02-10T06:57:09.617Z,33.60
2018-02-10T06:59:37.754Z,33.60
2018-02-10T07:02:06.671Z,33.50
2018-02-10T07:04:34.823Z,33.50
2018-02-10T07:07:03.769Z,33.40
2018-02-10T07:09:31.928Z,33.90
2018-02-10T07:12:00.163Z,33.20
2018-02-10T07:14:29.062Z,33.10
2018-02-10T07:16:57.262Z,33.10
2018-02-10T07:19:25.392Z,33.00
2018-02-10T07:21:54.331Z,33.10
2018-02-10T07:24:22.493Z,32.90
2018-02-10T07:26:50.661Z,32.90
2018-02-10T07:29:18.888Z,32.90
2018-02-10T07:31:47.145Z,32.80
2018-02-10T07:34:15.375Z,32.80
2018-02-10T07:36:44.303Z,33.30
2018-02-10T07:39:12.483Z,32.70
2018-02-10T07:41:40.618Z,32.60
2018-02-10T07:44:08.826Z,32.70
2018-02-10T07:46:36.992Z,32.60
2018-02-10T07:49:05.144Z,32.60
2018-02-10T07:51:33.281Z,32.50
2018-02-10T07:54:01.440Z,32.60
2018-02-10T07:56:29.653Z,32.60
2018-02-10T07:58:58.577Z,32.50
2018-02-10T08:01:27.049Z,32.40
2018-02-10T08:03:55.218Z,32.40
2018-02-10T08:06:23.391Z,32.40
2018-02-10T08:08:51.577Z,32.30
2018-02-10T08:11:19.722Z,32.30
2018-02-10T08:13:47.854Z,32.40
2018-02-10T08:16:17.703Z,32.80
2018-02-10T08:18:45.909Z,32.70
2018-02-10T08:21:14.173Z,32.40
2018-02-10T08:23:42.336Z,32.70
2018-02-10T08:26:10.592Z,32.70
2018-02-10T08:28:38.819Z,33.20
2018-02-10T08:31:07.213Z,32.50
2018-02-10T08:33:35.424Z,33.30
2018-02-10T08:36:04.314Z,33.50
2018-02-10T08:38:33.232Z,33.60
2018-02-10T08:41:01.392Z,33.60
2018-02-10T08:43:29.534Z,33.20
2018-02-10T08:45:57.706Z,33.20
2018-02-10T08:48:25.861Z,33.30
2018-02-10T08:50:54.033Z,33.50
2018-02-10T08:53:22.978Z,34.10
2018-02-10T08:55:51.157Z,33.90
2018-02-10T08:58:19.899Z,34.00
2018-02-10T09:00:48.114Z,33.60
2018-02-10T09:03:16.293Z,33.60
2018-02-10T09:05:44.447Z,33.50
2018-02-10T09:08:13.444Z,33.50
2018-02-10T09:10:42.359Z,33.70
2018-02-10T09:13:10.514Z,33.70
2018-02-10T09:15:38.703Z,33.60
2018-02-10T09:18:06.831Z,34.00
2018-02-10T09:20:35.004Z,34.20
2018-02-10T09:23:03.164Z,33.80
2018-02-10T09:25:31.331Z,33.60
2018-02-10T09:27:59.465Z,33.70
2018-02-10T09:30:27.619Z,33.50
2018-02-10T09:32:56.532Z,33.30
2018-02-10T09:35:24.665Z,33.30
2018-02-10T09:37:52.875Z,33.30
2018-02-10T09:40:21.012Z,33.80
2018-02-10T09:42:49.171Z,33.10
2018-02-10T09:45:17.360Z,33.30
2018-02-10T09:47:45.457Z,33.10
2018-02-10T09:50:13.618Z,33.10
2018-02-10T09:52:42.532Z,33.20
2018-02-10T09:55:10.662Z,33.00
2018-02-10T09:57:38.793Z,33.00
2018-02-10T10:00:06.999Z,32.90
2018-02-10T10:02:35.132Z,32.90
2018-02-10T10:05:03.397Z,32.90
2018-02-10T10:07:31.633Z,32.80
2018-02-10T10:09:59.785Z,32.90
2018-02-10T10:12:28.404Z,32.70
2018-02-10T10:14:57.343Z,32.70
2018-02-10T10:17:25.620Z,32.70
2018-02-10T10:19:53.776Z,32.60
2018-02-10T10:22:21.955Z,32.60
2018-02-10T10:24:50.078Z,32.60
2018-02-10T10:27:18.253Z,32.50
2018-02-10T10:29:46.405Z,32.50
2018-02-10T10:32:14.529Z,32.40
2018-02-10T10:34:42.688Z,32.30
2018-02-10T10:37:10.856Z,32.40
2018-02-10T10:39:39.008Z,32.50
2018-02-10T10:42:07.154Z,32.40
2018-02-10T10:44:35.338Z,32.30
2018-02-10T10:47:03.511Z,32.40
2018-02-10T10:49:31.664Z,32.40
2018-02-10T10:51:59.845Z,32.50
2018-02-10T10:54:27.998Z,33.00
2018-02-10T10:56:56.159Z,35.80
2018-02-10T10:59:24.342Z,36.20
2018-02-10T11:01:52.477Z,34.60
2018-02-10T11:04:22.710Z,34.40
2018-02-10T11:06:50.895Z,34.30
2018-02-10T11:09:19.856Z,35.40
2018-02-10T11:11:48.006Z,35.40
2018-02-10T11:14:16.273Z,35.10
2018-02-10T11:16:44.509Z,35.60
2018-02-10T11:19:13.412Z,34.10
2018-02-10T11:21:41.589Z,34.00
2018-02-10T11:24:09.754Z,33.80
2018-02-10T11:26:37.937Z,33.70
2018-02-10T11:29:06.110Z,33.60
2018-02-10T11:31:35.028Z,33.40
2018-02-10T11:34:03.340Z,33.40
2018-02-10T11:36:32.278Z,33.50
2018-02-10T11:39:00.427Z,33.40
2018-02-10T11:41:28.591Z,33.20
2018-02-10T11:43:56.742Z,35.60
2018-02-10T11:46:25.691Z,34.20
2018-02-10T11:48:53.911Z,33.80
2018-02-10T11:51:22.073Z,34.10
2018-02-10T11:53:50.227Z,34.40
2018-02-10T11:56:18.950Z,33.50
2018-02-10T11:58:47.110Z,33.40
2018-02-10T12:01:15.255Z,33.20
2018-02-10T12:03:43.429Z,32.90
2018-02-10T12:06:11.594Z,33.00
2018-02-10T12:08:39.774Z,33.60
2018-02-10T12:11:08.869Z,33.00
2018-02-10T12:13:37.086Z,32.80
2018-02-10T12:16:05.623Z,33.60
2018-02-10T12:18:33.787Z,33.50
2018-02-10T12:21:01.979Z,32.90
2018-02-10T12:23:30.211Z,33.10
2018-02-10T12:25:58.504Z,33.10
2018-02-10T12:28:26.698Z,33.00
2018-02-10T12:30:54.884Z,33.30
2018-02-10T12:33:23.651Z,33.40
2018-02-10T12:35:51.811Z,33.10
2018-02-10T12:38:21.223Z,33.80
2018-02-10T12:40:49.401Z,33.80
2018-02-10T12:43:17.639Z,34.00
2018-02-10T12:45:45.795Z,33.60
2018-02-10T12:48:30.053Z,34.10
2018-02-10T12:50:58.227Z,33.30
2018-02-10T12:53:26.453Z,33.60
2018-02-10T12:55:54.678Z,33.90
2018-02-10T12:58:22.879Z,34.30
2018-02-10T13:00:51.804Z,33.80
2018-02-10T13:03:19.977Z,33.80
2018-02-10T13:05:48.149Z,33.30
2018-02-10T13:08:16.315Z,33.00
2018-02-10T13:10:44.498Z,33.20
2018-02-10T13:13:12.649Z,32.90
2018-02-10T13:15:41.622Z,35.70
2018-02-10T13:18:10.559Z,33.00
2018-02-10T13:20:38.703Z,32.90
2018-02-10T13:23:11.534Z,33.20
2018-02-10T13:25:39.766Z,33.10
2018-02-10T13:28:07.963Z,33.10
2018-02-10T13:30:36.426Z,33.40
2018-02-10T13:33:04.693Z,33.60
2018-02-10T13:35:33.992Z,35.20
2018-02-10T13:38:02.991Z,33.20
2018-02-10T13:40:31.228Z,33.20
2018-02-10T13:42:59.426Z,33.20
2018-02-10T13:45:27.594Z,32.90
2018-02-10T13:47:56.528Z,33.20
2018-02-10T13:50:24.666Z,33.20
2018-02-10T13:52:53.618Z,33.50
2018-02-10T13:55:21.771Z,33.40
2018-02-10T13:57:49.930Z,33.30
2018-02-10T14:00:18.200Z,33.60
2018-02-10T14:02:46.357Z,33.50
2018-02-10T14:05:15.320Z,33.70
2018-02-10T14:07:44.271Z,33.40
2018-02-10T14:10:12.433Z,33.30
2018-02-10T14:12:40.613Z,33.20
2018-02-10T14:15:08.784Z,33.20
